sensor_id;sensor_type;location;lat;lon;timestamp;temperature;humidity
9768;DHT22;4923;52.520;13.494;2023-02-01T00:02:37;4.60;1.00
9768;DHT22;4923;52.520;13.494;2023-02-01T00:05:26;4.60;99.90
9768;DHT22;4923;52.520;13.494;2023-02-01T00:08:13;4.70;43.10
9768;DHT22;4923;52.520;13.494;2023-02-01T00:11:03;4.70;1.00
9768;DHT22;4923;52.520;13.494;2023-02-01T00:13:51;4.60;1.00
9768;DHT22;4923;52.520;13.494;2023-02-01T00:16:37;4.50;1.00
9768;DHT22;4923;52.520;13.494;2023-02-01T00:19:24;4.40;1.00
9768;DHT22;4923;52.520;13.494;2023-02-01T00:22:11;4.30;1.00
9768;DHT22;4923;52.520;13.494;2023-02-01T00:24:58;4.40;1.00
9768;DHT22;4923;52.520;13.494;2023-02-01T00:27:49;4.30;1.00
9768;DHT22;4923;52.520;13.494;2023-02-01T00:30:36;4.30;1.00
9768;DHT22;4923;52.520;13.494;2023-02-01T00:33:23;4.40;1.00
9768;DHT22;4923;52.520;13.494;2023-02-01T00:36:10;4.40;1.00
9768;DHT22;4923;52.520;13.494;2023-02-01T00:38:57;4.40;1.00
9768;DHT22;4923;52.520;13.494;2023-02-01T00:41:44;4.30;1.00
9768;DHT22;4923;52.520;13.494;2023-02-01T00:44:32;4.40;1.00
9768;DHT22;4923;52.520;13.494;2023-02-01T00:47:20;4.40;1.00
9768;DHT22;4923;52.520;13.494;2023-02-01T00:50:08;4.40;1.00
9768;DHT22;4923;52.520;13.494;2023-02-01T00:52:55;4.40;1.00
9768;DHT22;4923;52.520;13.494;2023-02-01T00:55:44;4.40;1.00
9768;DHT22;4923;52.520;13.494;2023-02-01T00:58:32;4.40;1.00
9768;DHT22;4923;52.520;13.494;2023-02-01T01:01:22;4.50;1.00
9768;DHT22;4923;52.520;13.494;2023-02-01T01:04:09;4.50;1.00
9768;DHT22;4923;52.520;13.494;2023-02-01T01:06:56;4.60;1.00
9768;DHT22;4923;52.520;13.494;2023-02-01T01:09:43;4.60;1.00
9768;DHT22;4923;52.520;13.494;2023-02-01T01:12:30;4.50;1.00
9768;DHT22;4923;52.520;13.494;2023-02-01T01:15:17;4.40;1.00
9768;DHT22;4923;52.520;13.494;2023-02-01T01:18:06;4.40;1.00
9768;DHT22;4923;52.520;13.494;2023-02-01T01:20:53;4.30;1.00
9768;DHT22;4923;52.520;13.494;2023-02-01T01:23:40;4.30;1.00
9768;DHT22;4923;52.520;13.494;2023-02-01T01:26:28;4.30;1.00
9768;DHT22;4923;52.520;13.494;2023-02-01T01:29:15;4.30;1.00
9768;DHT22;4923;52.520;13.494;2023-02-01T01:32:02;4.30;1.00
9768;DHT22;4923;52.520;13.494;2023-02-01T01:34:51;4.30;1.00
9768;DHT22;4923;52.520;13.494;2023-02-01T01:37:38;4.30;99.90
9768;DHT22;4923;52.520;13.494;2023-02-01T01:40:25;4.30;99.90
9768;DHT22;4923;52.520;13.494;2023-02-01T01:43:13;4.30;1.00
9768;DHT22;4923;52.520;13.494;2023-02-01T01:46:00;4.40;1.00
9768;DHT22;4923;52.520;13.494;2023-02-01T01:48:50;4.40;1.00
9768;DHT22;4923;52.520;13.494;2023-02-01T01:51:42;4.30;1.00
9768;DHT22;4923;52.520;13.494;2023-02-01T01:54:33;4.30;1.00
9768;DHT22;4923;52.520;13.494;2023-02-01T01:57:24;4.30;1.00
9768;DHT22;4923;52.520;13.494;2023-02-01T02:00:16;4.30;1.00
9768;DHT22;4923;52.520;13.494;2023-02-01T02:03:08;4.30;99.90
9768;DHT22;4923;52.520;13.494;2023-02-01T02:05:59;4.30;99.90
9768;DHT22;4923;52.520;13.494;2023-02-01T02:08:48;4.40;16.70
9768;DHT22;4923;52.520;13.494;2023-02-01T02:11:35;4.40;1.00
9768;DHT22;4923;52.520;13.494;2023-02-01T02:14:23;4.40;1.00
9768;DHT22;4923;52.520;13.494;2023-02-01T02:17:23;4.40;99.90
9768;DHT22;4923;52.520;13.494;2023-02-01T02:20:45;4.40;99.90
9768;DHT22;4923;52.520;13.494;2023-02-01T02:24:00;4.40;1.40
9768;DHT22;4923;52.520;13.494;2023-02-01T02:27:15;4.40;99.90
9768;DHT22;4923;52.520;13.494;2023-02-01T02:30:36;4.60;99.90
9768;DHT22;4923;52.520;13.494;2023-02-01T02:33:42;4.50;1.00
9768;DHT22;4923;52.520;13.494;2023-02-01T02:36:39;4.50;99.90
9768;DHT22;4923;52.520;13.494;2023-02-01T02:39:36;4.50;1.00
9768;DHT22;4923;52.520;13.494;2023-02-01T02:42:29;4.40;1.00
9768;DHT22;4923;52.520;13.494;2023-02-01T02:45:41;4.50;99.90
9768;DHT22;4923;52.520;13.494;2023-02-01T02:48:53;4.50;1.00
9768;DHT22;4923;52.520;13.494;2023-02-01T02:51:45;4.50;1.00
9768;DHT22;4923;52.520;13.494;2023-02-01T02:54:50;4.50;99.90
9768;DHT22;4923;52.520;13.494;2023-02-01T02:57:41;4.60;99.90
9768;DHT22;4923;52.520;13.494;2023-02-01T03:00:48;4.50;1.00
9768;DHT22;4923;52.520;13.494;2023-02-01T03:03:55;4.60;1.00
9768;DHT22;4923;52.520;13.494;2023-02-01T03:06:55;4.50;1.00
9768;DHT22;4923;52.520;13.494;2023-02-01T03:09:44;4.60;1.00
9768;DHT22;4923;52.520;13.494;2023-02-01T03:12:37;4.60;1.00
9768;DHT22;4923;52.520;13.494;2023-02-01T03:15:51;4.60;1.00
9768;DHT22;4923;52.520;13.494;2023-02-01T03:18:47;4.60;1.00
9768;DHT22;4923;52.520;13.494;2023-02-01T03:21:40;4.60;1.00
9768;DHT22;4923;52.520;13.494;2023-02-01T03:24:32;4.60;1.00
9768;DHT22;4923;52.520;13.494;2023-02-01T03:27:22;4.60;1.00
9768;DHT22;4923;52.520;13.494;2023-02-01T03:30:15;4.60;1.00
9768;DHT22;4923;52.520;13.494;2023-02-01T03:33:06;4.60;1.00
9768;DHT22;4923;52.520;13.494;2023-02-01T03:36:05;4.50;1.00
9768;DHT22;4923;52.520;13.494;2023-02-01T03:39:00;4.60;1.00
9768;DHT22;4923;52.520;13.494;2023-02-01T03:41:50;4.60;1.00
9768;DHT22;4923;52.520;13.494;2023-02-01T03:44:40;4.50;1.00
9768;DHT22;4923;52.520;13.494;2023-02-01T03:47:34;4.60;1.00
9768;DHT22;4923;52.520;13.494;2023-02-01T03:50:23;4.60;1.00
9768;DHT22;4923;52.520;13.494;2023-02-01T03:53:14;4.70;1.00
9768;DHT22;4923;52.520;13.494;2023-02-01T03:56:06;4.60;1.00
9768;DHT22;4923;52.520;13.494;2023-02-01T03:58:53;4.60;1.00
9768;DHT22;4923;52.520;13.494;2023-02-01T04:01:46;4.60;1.00
9768;DHT22;4923;52.520;13.494;2023-02-01T04:04:33;4.60;1.00
9768;DHT22;4923;52.520;13.494;2023-02-01T04:07:20;4.60;1.00
9768;DHT22;4923;52.520;13.494;2023-02-01T04:10:08;4.70;1.00
9768;DHT22;4923;52.520;13.494;2023-02-01T04:12:57;4.70;1.00
9768;DHT22;4923;52.520;13.494;2023-02-01T04:15:43;4.80;1.00
9768;DHT22;4923;52.520;13.494;2023-02-01T04:18:31;4.90;1.00
9768;DHT22;4923;52.520;13.494;2023-02-01T04:21:18;4.90;1.00
9768;DHT22;4923;52.520;13.494;2023-02-01T04:24:05;5.00;1.00
9768;DHT22;4923;52.520;13.494;2023-02-01T04:26:52;5.00;1.00
9768;DHT22;4923;52.520;13.494;2023-02-01T04:29:41;5.10;1.00
9768;DHT22;4923;52.520;13.494;2023-02-01T04:32:27;5.10;1.00
9768;DHT22;4923;52.520;13.494;2023-02-01T04:35:14;5.10;1.00
9768;DHT22;4923;52.520;13.494;2023-02-01T04:38:03;5.10;1.00
9768;DHT22;4923;52.520;13.494;2023-02-01T04:40:50;5.10;1.00
9768;DHT22;4923;52.520;13.494;2023-02-01T04:43:37;5.10;1.00
9768;DHT22;4923;52.520;13.494;2023-02-01T04:46:25;5.20;1.00
9768;DHT22;4923;52.520;13.494;2023-02-01T04:49:12;5.20;1.00
9768;DHT22;4923;52.520;13.494;2023-02-01T04:51:59;5.30;1.00
9768;DHT22;4923;52.520;13.494;2023-02-01T04:54:46;5.40;1.00
9768;DHT22;4923;52.520;13.494;2023-02-01T04:57:33;5.40;1.00
9768;DHT22;4923;52.520;13.494;2023-02-01T05:00:20;5.40;1.00
9768;DHT22;4923;52.520;13.494;2023-02-01T05:03:08;5.40;1.00
9768;DHT22;4923;52.520;13.494;2023-02-01T05:05:55;5.40;1.00
9768;DHT22;4923;52.520;13.494;2023-02-01T05:08:43;5.50;1.00
9768;DHT22;4923;52.520;13.494;2023-02-01T05:11:30;5.50;1.00
9768;DHT22;4923;52.520;13.494;2023-02-01T05:14:34;5.50;1.00
9768;DHT22;4923;52.520;13.494;2023-02-01T05:17:21;5.60;1.00
9768;DHT22;4923;52.520;13.494;2023-02-01T05:20:10;5.60;1.00
9768;DHT22;4923;52.520;13.494;2023-02-01T05:22:57;5.60;1.00
9768;DHT22;4923;52.520;13.494;2023-02-01T05:25:44;5.60;1.00
9768;DHT22;4923;52.520;13.494;2023-02-01T05:28:31;5.60;1.00
9768;DHT22;4923;52.520;13.494;2023-02-01T05:31:18;5.70;1.00
9768;DHT22;4923;52.520;13.494;2023-02-01T05:34:05;5.70;1.00
9768;DHT22;4923;52.520;13.494;2023-02-01T05:36:53;5.70;1.00
9768;DHT22;4923;52.520;13.494;2023-02-01T05:39:40;5.70;1.00
9768;DHT22;4923;52.520;13.494;2023-02-01T05:42:27;5.80;1.00
9768;DHT22;4923;52.520;13.494;2023-02-01T05:45:14;5.70;1.00
9768;DHT22;4923;52.520;13.494;2023-02-01T05:48:01;5.80;1.00
9768;DHT22;4923;52.520;13.494;2023-02-01T05:50:48;5.80;1.00
9768;DHT22;4923;52.520;13.494;2023-02-01T05:53:36;5.70;1.00
9768;DHT22;4923;52.520;13.494;2023-02-01T05:56:23;5.70;1.00
9768;DHT22;4923;52.520;13.494;2023-02-01T05:59:10;5.80;1.00
9768;DHT22;4923;52.520;13.494;2023-02-01T06:01:57;5.80;1.00
9768;DHT22;4923;52.520;13.494;2023-02-01T06:04:44;5.70;1.00
9768;DHT22;4923;52.520;13.494;2023-02-01T06:07:30;5.80;1.00
9768;DHT22;4923;52.520;13.494;2023-02-01T06:10:19;5.80;1.00
9768;DHT22;4923;52.520;13.494;2023-02-01T06:13:06;5.80;1.00
9768;DHT22;4923;52.520;13.494;2023-02-01T06:15:54;5.80;1.00
9768;DHT22;4923;52.520;13.494;2023-02-01T06:18:41;5.80;1.00
9768;DHT22;4923;52.520;13.494;2023-02-01T06:21:28;5.80;1.00
9768;DHT22;4923;52.520;13.494;2023-02-01T06:24:15;5.70;1.00
9768;DHT22;4923;52.520;13.494;2023-02-01T06:27:03;5.80;1.00
9768;DHT22;4923;52.520;13.494;2023-02-01T06:29:50;5.70;1.00
9768;DHT22;4923;52.520;13.494;2023-02-01T06:32:37;5.60;1.00
9768;DHT22;4923;52.520;13.494;2023-02-01T06:35:25;5.60;1.00
9768;DHT22;4923;52.520;13.494;2023-02-01T06:38:12;5.60;1.00
9768;DHT22;4923;52.520;13.494;2023-02-01T06:40:59;5.50;1.00
9768;DHT22;4923;52.520;13.494;2023-02-01T06:43:47;5.50;1.00
9768;DHT22;4923;52.520;13.494;2023-02-01T06:46:34;5.50;1.00
9768;DHT22;4923;52.520;13.494;2023-02-01T06:49:21;5.50;1.00
9768;DHT22;4923;52.520;13.494;2023-02-01T06:52:08;5.50;1.00
9768;DHT22;4923;52.520;13.494;2023-02-01T06:54:54;5.50;1.00
9768;DHT22;4923;52.520;13.494;2023-02-01T06:57:41;5.40;1.00
9768;DHT22;4923;52.520;13.494;2023-02-01T07:00:30;5.40;1.00
9768;DHT22;4923;52.520;13.494;2023-02-01T07:03:16;5.50;1.00
9768;DHT22;4923;52.520;13.494;2023-02-01T07:06:04;5.50;1.00
9768;DHT22;4923;52.520;13.494;2023-02-01T07:08:52;5.50;1.00
9768;DHT22;4923;52.520;13.494;2023-02-01T07:11:41;5.50;1.00
9768;DHT22;4923;52.520;13.494;2023-02-01T07:14:29;5.50;1.00
9768;DHT22;4923;52.520;13.494;2023-02-01T07:17:17;5.50;1.00
9768;DHT22;4923;52.520;13.494;2023-02-01T07:20:05;5.50;1.00
9768;DHT22;4923;52.520;13.494;2023-02-01T07:22:55;5.50;1.00
9768;DHT22;4923;52.520;13.494;2023-02-01T07:25:42;5.50;1.00
9768;DHT22;4923;52.520;13.494;2023-02-01T07:28:30;5.50;1.00
9768;DHT22;4923;52.520;13.494;2023-02-01T07:31:18;5.50;1.00
9768;DHT22;4923;52.520;13.494;2023-02-01T07:34:08;5.50;1.00
9768;DHT22;4923;52.520;13.494;2023-02-01T07:36:55;5.50;1.00
9768;DHT22;4923;52.520;13.494;2023-02-01T07:39:42;5.60;1.00
9768;DHT22;4923;52.520;13.494;2023-02-01T07:42:29;5.60;1.00
9768;DHT22;4923;52.520;13.494;2023-02-01T07:45:16;5.70;1.00
9768;DHT22;4923;52.520;13.494;2023-02-01T07:48:04;5.80;1.00
9768;DHT22;4923;52.520;13.494;2023-02-01T07:50:58;5.70;1.00
9768;DHT22;4923;52.520;13.494;2023-02-01T07:53:45;5.70;1.00
9768;DHT22;4923;52.520;13.494;2023-02-01T07:56:32;6.00;1.00
9768;DHT22;4923;52.520;13.494;2023-02-01T07:59:19;8.30;1.00
9768;DHT22;4923;52.520;13.494;2023-02-01T08:02:07;6.80;1.00
9768;DHT22;4923;52.520;13.494;2023-02-01T08:04:53;5.90;1.00
9768;DHT22;4923;52.520;13.494;2023-02-01T08:07:41;5.60;1.00
9768;DHT22;4923;52.520;13.494;2023-02-01T08:10:28;5.40;1.00
9768;DHT22;4923;52.520;13.494;2023-02-01T08:13:15;5.30;1.00
9768;DHT22;4923;52.520;13.494;2023-02-01T08:16:04;5.10;1.00
9768;DHT22;4923;52.520;13.494;2023-02-01T08:18:52;5.10;1.00
9768;DHT22;4923;52.520;13.494;2023-02-01T08:21:39;5.00;1.00
9768;DHT22;4923;52.520;13.494;2023-02-01T08:24:27;5.00;1.00
9768;DHT22;4923;52.520;13.494;2023-02-01T08:27:14;4.90;1.00
9768;DHT22;4923;52.520;13.494;2023-02-01T08:30:01;4.70;1.00
9768;DHT22;4923;52.520;13.494;2023-02-01T08:32:49;4.60;1.00
9768;DHT22;4923;52.520;13.494;2023-02-01T08:35:36;4.60;1.00
9768;DHT22;4923;52.520;13.494;2023-02-01T08:38:23;4.50;1.00
9768;DHT22;4923;52.520;13.494;2023-02-01T08:41:14;4.50;1.00
9768;DHT22;4923;52.520;13.494;2023-02-01T08:44:01;4.50;1.00
9768;DHT22;4923;52.520;13.494;2023-02-01T08:46:48;4.40;1.00
9768;DHT22;4923;52.520;13.494;2023-02-01T08:49:35;4.40;1.00
9768;DHT22;4923;52.520;13.494;2023-02-01T08:52:21;4.40;1.00
9768;DHT22;4923;52.520;13.494;2023-02-01T08:55:09;4.40;1.00
9768;DHT22;4923;52.520;13.494;2023-02-01T08:57:57;4.40;1.00
9768;DHT22;4923;52.520;13.494;2023-02-01T09:00:44;4.40;1.00
9768;DHT22;4923;52.520;13.494;2023-02-01T09:03:31;4.30;1.00
9768;DHT22;4923;52.520;13.494;2023-02-01T09:06:18;4.30;1.00
9768;DHT22;4923;52.520;13.494;2023-02-01T09:09:05;4.30;1.00
9768;DHT22;4923;52.520;13.494;2023-02-01T09:11:52;4.40;1.00
9768;DHT22;4923;52.520;13.494;2023-02-01T09:14:40;4.40;1.00
9768;DHT22;4923;52.520;13.494;2023-02-01T09:17:27;4.40;1.00
9768;DHT22;4923;52.520;13.494;2023-02-01T09:20:15;4.50;1.00
9768;DHT22;4923;52.520;13.494;2023-02-01T09:23:02;4.50;1.00
9768;DHT22;4923;52.520;13.494;2023-02-01T09:25:52;4.60;1.00
9768;DHT22;4923;52.520;13.494;2023-02-01T09:28:39;4.70;1.00
9768;DHT22;4923;52.520;13.494;2023-02-01T09:31:27;4.80;1.00
9768;DHT22;4923;52.520;13.494;2023-02-01T09:34:14;4.80;1.00
9768;DHT22;4923;52.520;13.494;2023-02-01T09:37:01;4.80;1.00
9768;DHT22;4923;52.520;13.494;2023-02-01T09:39:48;4.80;1.00
9768;DHT22;4923;52.520;13.494;2023-02-01T09:42:50;4.80;1.00
9768;DHT22;4923;52.520;13.494;2023-02-01T09:45:49;4.80;1.00
9768;DHT22;4923;52.520;13.494;2023-02-01T09:48:41;4.90;1.00
9768;DHT22;4923;52.520;13.494;2023-02-01T09:51:33;4.90;1.00
9768;DHT22;4923;52.520;13.494;2023-02-01T09:54:24;4.90;1.00
9768;DHT22;4923;52.520;13.494;2023-02-01T09:57:17;4.90;1.00
9768;DHT22;4923;52.520;13.494;2023-02-01T10:00:14;4.90;1.00
9768;DHT22;4923;52.520;13.494;2023-02-01T10:03:04;5.00;1.00
9768;DHT22;4923;52.520;13.494;2023-02-01T10:09:24;5.00;1.00
9768;DHT22;4923;52.520;13.494;2023-02-01T10:12:44;5.00;1.00
9768;DHT22;4923;52.520;13.494;2023-02-01T10:15:43;5.00;1.00
9768;DHT22;4923;52.520;13.494;2023-02-01T10:18:51;5.00;1.00
9768;DHT22;4923;52.520;13.494;2023-02-01T10:21:51;4.70;1.00
9768;DHT22;4923;52.520;13.494;2023-02-01T10:24:42;4.60;1.00
9768;DHT22;4923;52.520;13.494;2023-02-01T10:27:34;4.60;1.00
9768;DHT22;4923;52.520;13.494;2023-02-01T10:30:23;4.60;1.00
9768;DHT22;4923;52.520;13.494;2023-02-01T10:33:16;4.60;1.00
9768;DHT22;4923;52.520;13.494;2023-02-01T10:36:16;4.60;1.00
9768;DHT22;4923;52.520;13.494;2023-02-01T10:39:10;4.70;1.00
9768;DHT22;4923;52.520;13.494;2023-02-01T10:41:59;4.80;1.00
9768;DHT22;4923;52.520;13.494;2023-02-01T10:44:46;4.90;1.00
9768;DHT22;4923;52.520;13.494;2023-02-01T10:47:33;5.10;1.00
9768;DHT22;4923;52.520;13.494;2023-02-01T10:50:29;5.20;1.00
9768;DHT22;4923;52.520;13.494;2023-02-01T10:53:24;5.30;1.00
9768;DHT22;4923;52.520;13.494;2023-02-01T10:56:13;5.30;1.00
9768;DHT22;4923;52.520;13.494;2023-02-01T10:59:01;5.20;1.00
9768;DHT22;4923;52.520;13.494;2023-02-01T11:01:50;5.10;1.00
9768;DHT22;4923;52.520;13.494;2023-02-01T11:04:43;5.10;1.00
9768;DHT22;4923;52.520;13.494;2023-02-01T11:07:31;5.00;1.00
9768;DHT22;4923;52.520;13.494;2023-02-01T11:10:36;5.00;1.00
9768;DHT22;4923;52.520;13.494;2023-02-01T11:13:29;5.00;1.00
9768;DHT22;4923;52.520;13.494;2023-02-01T11:16:18;5.00;1.00
9768;DHT22;4923;52.520;13.494;2023-02-01T11:19:06;5.10;1.00
9768;DHT22;4923;52.520;13.494;2023-02-01T11:21:54;5.10;1.00
9768;DHT22;4923;52.520;13.494;2023-02-01T11:24:45;5.20;1.00
9768;DHT22;4923;52.520;13.494;2023-02-01T11:27:33;5.30;1.00
9768;DHT22;4923;52.520;13.494;2023-02-01T11:30:30;5.40;1.00
9768;DHT22;4923;52.520;13.494;2023-02-01T11:33:19;5.60;1.00
9768;DHT22;4923;52.520;13.494;2023-02-01T11:36:13;5.80;1.00
9768;DHT22;4923;52.520;13.494;2023-02-01T11:39:18;5.90;1.00
9768;DHT22;4923;52.520;13.494;2023-02-01T11:42:14;6.10;1.00
9768;DHT22;4923;52.520;13.494;2023-02-01T11:45:18;6.20;1.00
9768;DHT22;4923;52.520;13.494;2023-02-01T11:48:13;6.30;1.00
9768;DHT22;4923;52.520;13.494;2023-02-01T11:51:17;6.30;1.00
9768;DHT22;4923;52.520;13.494;2023-02-01T11:54:19;6.30;1.00
9768;DHT22;4923;52.520;13.494;2023-02-01T11:57:20;6.30;1.00
9768;DHT22;4923;52.520;13.494;2023-02-01T12:00:32;6.40;1.00
9768;DHT22;4923;52.520;13.494;2023-02-01T12:03:52;6.50;1.00
9768;DHT22;4923;52.520;13.494;2023-02-01T12:06:48;6.70;1.00
9768;DHT22;4923;52.520;13.494;2023-02-01T12:09:45;6.70;1.00
9768;DHT22;4923;52.520;13.494;2023-02-01T12:12:40;6.80;1.00
9768;DHT22;4923;52.520;13.494;2023-02-01T12:15:40;6.90;1.00
9768;DHT22;4923;52.520;13.494;2023-02-01T12:18:50;6.90;1.00
9768;DHT22;4923;52.520;13.494;2023-02-01T12:21:48;7.10;1.00
9768;DHT22;4923;52.520;13.494;2023-02-01T12:24:55;7.10;1.00
9768;DHT22;4923;52.520;13.494;2023-02-01T12:27:57;7.00;1.00
9768;DHT22;4923;52.520;13.494;2023-02-01T12:31:17;6.90;1.00
9768;DHT22;4923;52.520;13.494;2023-02-01T12:34:36;7.00;1.00
9768;DHT22;4923;52.520;13.494;2023-02-01T12:37:36;7.00;1.00
9768;DHT22;4923;52.520;13.494;2023-02-01T12:40:47;6.90;1.00
9768;DHT22;4923;52.520;13.494;2023-02-01T12:43:39;6.80;1.00
9768;DHT22;4923;52.520;13.494;2023-02-01T12:46:31;6.80;1.00
9768;DHT22;4923;52.520;13.494;2023-02-01T12:49:23;6.80;1.00
9768;DHT22;4923;52.520;13.494;2023-02-01T12:52:18;6.80;1.00
9768;DHT22;4923;52.520;13.494;2023-02-01T12:55:15;6.70;1.00
9768;DHT22;4923;52.520;13.494;2023-02-01T12:58:09;6.70;1.00
9768;DHT22;4923;52.520;13.494;2023-02-01T13:00:59;6.70;1.00
9768;DHT22;4923;52.520;13.494;2023-02-01T13:03:54;6.70;1.00
9768;DHT22;4923;52.520;13.494;2023-02-01T13:06:46;6.70;1.00
9768;DHT22;4923;52.520;13.494;2023-02-01T13:09:40;6.80;1.00
9768;DHT22;4923;52.520;13.494;2023-02-01T13:12:32;6.90;1.00
9768;DHT22;4923;52.520;13.494;2023-02-01T13:15:23;6.90;1.00
9768;DHT22;4923;52.520;13.494;2023-02-01T13:18:16;7.00;1.00
9768;DHT22;4923;52.520;13.494;2023-02-01T13:21:06;7.00;1.00
9768;DHT22;4923;52.520;13.494;2023-02-01T13:23:55;6.90;1.00
9768;DHT22;4923;52.520;13.494;2023-02-01T13:26:45;6.30;1.00
9768;DHT22;4923;52.520;13.494;2023-02-01T13:29:33;5.60;1.00
9768;DHT22;4923;52.520;13.494;2023-02-01T13:32:35;5.30;1.00
9768;DHT22;4923;52.520;13.494;2023-02-01T13:35:44;5.30;1.00
9768;DHT22;4923;52.520;13.494;2023-02-01T13:41:57;5.90;1.00
9768;DHT22;4923;52.520;13.494;2023-02-01T13:44:47;6.30;1.00
9768;DHT22;4923;52.520;13.494;2023-02-01T13:47:39;6.60;1.00
9768;DHT22;4923;52.520;13.494;2023-02-01T13:50:30;6.70;1.00
9768;DHT22;4923;52.520;13.494;2023-02-01T13:53:23;6.80;1.00
9768;DHT22;4923;52.520;13.494;2023-02-01T13:56:15;6.80;1.00
9768;DHT22;4923;52.520;13.494;2023-02-01T13:59:48;6.90;1.00
9768;DHT22;4923;52.520;13.494;2023-02-01T14:02:47;6.90;1.00
9768;DHT22;4923;52.520;13.494;2023-02-01T14:05:57;6.90;1.00
9768;DHT22;4923;52.520;13.494;2023-02-01T14:09:11;7.00;1.00
9768;DHT22;4923;52.520;13.494;2023-02-01T14:12:41;7.00;1.00
9768;DHT22;4923;52.520;13.494;2023-02-01T14:15:24;7.10;1.00
9768;DHT22;4923;52.520;13.494;2023-02-01T14:21:33;7.00;1.00
9768;DHT22;4923;52.520;13.494;2023-02-01T14:24:24;6.90;1.00
9768;DHT22;4923;52.520;13.494;2023-02-01T14:27:18;6.70;1.00
9768;DHT22;4923;52.520;13.494;2023-02-01T14:30:11;6.60;1.00
9768;DHT22;4923;52.520;13.494;2023-02-01T14:33:12;6.50;1.00
9768;DHT22;4923;52.520;13.494;2023-02-01T14:36:07;6.40;1.00
9768;DHT22;4923;52.520;13.494;2023-02-01T14:38:55;6.50;1.00
9768;DHT22;4923;52.520;13.494;2023-02-01T14:41:43;6.50;1.00
9768;DHT22;4923;52.520;13.494;2023-02-01T14:44:34;6.60;1.00
9768;DHT22;4923;52.520;13.494;2023-02-01T14:47:32;6.60;1.00
9768;DHT22;4923;52.520;13.494;2023-02-01T14:50:27;6.70;1.00
9768;DHT22;4923;52.520;13.494;2023-02-01T14:53:17;6.60;1.00
9768;DHT22;4923;52.520;13.494;2023-02-01T14:56:08;6.70;1.00
9768;DHT22;4923;52.520;13.494;2023-02-01T14:59:01;6.60;1.00
9768;DHT22;4923;52.520;13.494;2023-02-01T15:01:57;6.60;1.00
9768;DHT22;4923;52.520;13.494;2023-02-01T15:04:45;6.60;1.00
9768;DHT22;4923;52.520;13.494;2023-02-01T15:07:33;6.70;1.00
9768;DHT22;4923;52.520;13.494;2023-02-01T15:10:21;6.60;1.00
9768;DHT22;4923;52.520;13.494;2023-02-01T15:13:19;6.60;1.00
9768;DHT22;4923;52.520;13.494;2023-02-01T15:16:11;6.70;1.00
9768;DHT22;4923;52.520;13.494;2023-02-01T15:19:09;6.70;1.00
9768;DHT22;4923;52.520;13.494;2023-02-01T15:21:57;6.70;1.00
9768;DHT22;4923;52.520;13.494;2023-02-01T15:24:52;6.50;1.00
9768;DHT22;4923;52.520;13.494;2023-02-01T15:27:39;6.30;1.00
9768;DHT22;4923;52.520;13.494;2023-02-01T15:30:27;6.20;1.00
9768;DHT22;4923;52.520;13.494;2023-02-01T15:33:16;5.90;1.00
9768;DHT22;4923;52.520;13.494;2023-02-01T15:36:09;5.80;1.00
9768;DHT22;4923;52.520;13.494;2023-02-01T15:39:15;5.70;1.00
9768;DHT22;4923;52.520;13.494;2023-02-01T15:42:12;5.60;1.00
9768;DHT22;4923;52.520;13.494;2023-02-01T15:45:01;5.40;1.00
9768;DHT22;4923;52.520;13.494;2023-02-01T15:47:48;5.20;1.00
9768;DHT22;4923;52.520;13.494;2023-02-01T15:50:39;5.20;1.00
9768;DHT22;4923;52.520;13.494;2023-02-01T15:53:27;4.90;1.00
9768;DHT22;4923;52.520;13.494;2023-02-01T15:56:22;4.70;1.00
9768;DHT22;4923;52.520;13.494;2023-02-01T15:59:16;4.60;1.00
9768;DHT22;4923;52.520;13.494;2023-02-01T16:02:03;4.40;1.00
9768;DHT22;4923;52.520;13.494;2023-02-01T16:04:50;4.30;1.00
9768;DHT22;4923;52.520;13.494;2023-02-01T16:07:39;4.10;1.00
9768;DHT22;4923;52.520;13.494;2023-02-01T16:10:27;3.80;1.00
9768;DHT22;4923;52.520;13.494;2023-02-01T16:13:15;3.40;1.00
9768;DHT22;4923;52.520;13.494;2023-02-01T16:16:04;3.20;1.00
9768;DHT22;4923;52.520;13.494;2023-02-01T16:18:53;3.10;1.00
9768;DHT22;4923;52.520;13.494;2023-02-01T16:21:40;3.10;1.00
9768;DHT22;4923;52.520;13.494;2023-02-01T16:24:27;3.10;1.00
9768;DHT22;4923;52.520;13.494;2023-02-01T16:27:14;3.10;1.00
9768;DHT22;4923;52.520;13.494;2023-02-01T16:30:00;3.10;1.00
9768;DHT22;4923;52.520;13.494;2023-02-01T16:32:49;3.00;1.00
9768;DHT22;4923;52.520;13.494;2023-02-01T16:35:37;3.10;1.00
9768;DHT22;4923;52.520;13.494;2023-02-01T16:38:24;3.10;1.00
9768;DHT22;4923;52.520;13.494;2023-02-01T16:41:13;3.10;1.00
9768;DHT22;4923;52.520;13.494;2023-02-01T16:44:00;3.20;1.00
9768;DHT22;4923;52.520;13.494;2023-02-01T16:46:48;3.20;1.00
9768;DHT22;4923;52.520;13.494;2023-02-01T16:49:36;3.20;1.00
9768;DHT22;4923;52.520;13.494;2023-02-01T16:52:25;3.20;1.00
9768;DHT22;4923;52.520;13.494;2023-02-01T16:55:14;3.30;1.00
9768;DHT22;4923;52.520;13.494;2023-02-01T16:58:01;3.30;1.00
9768;DHT22;4923;52.520;13.494;2023-02-01T17:00:48;3.30;1.00
9768;DHT22;4923;52.520;13.494;2023-02-01T17:03:36;3.40;1.00
9768;DHT22;4923;52.520;13.494;2023-02-01T17:06:25;3.40;1.00
9768;DHT22;4923;52.520;13.494;2023-02-01T17:09:13;3.40;1.00
9768;DHT22;4923;52.520;13.494;2023-02-01T17:11:59;3.40;1.00
9768;DHT22;4923;52.520;13.494;2023-02-01T17:14:46;3.50;1.00
9768;DHT22;4923;52.520;13.494;2023-02-01T17:17:36;3.50;1.00
9768;DHT22;4923;52.520;13.494;2023-02-01T17:20:26;3.50;1.00
9768;DHT22;4923;52.520;13.494;2023-02-01T17:23:17;3.50;1.00
9768;DHT22;4923;52.520;13.494;2023-02-01T17:26:04;3.60;1.00
9768;DHT22;4923;52.520;13.494;2023-02-01T17:28:52;3.60;1.00
9768;DHT22;4923;52.520;13.494;2023-02-01T17:31:41;3.70;1.00
9768;DHT22;4923;52.520;13.494;2023-02-01T17:34:28;3.70;1.00
9768;DHT22;4923;52.520;13.494;2023-02-01T17:37:27;3.70;1.00
9768;DHT22;4923;52.520;13.494;2023-02-01T17:40:15;3.70;1.00
9768;DHT22;4923;52.520;13.494;2023-02-01T17:43:02;3.80;1.00
9768;DHT22;4923;52.520;13.494;2023-02-01T17:45:51;3.80;1.00
9768;DHT22;4923;52.520;13.494;2023-02-01T17:48:39;3.90;1.00
9768;DHT22;4923;52.520;13.494;2023-02-01T17:51:27;3.90;1.00
9768;DHT22;4923;52.520;13.494;2023-02-01T17:54:16;3.90;1.00
9768;DHT22;4923;52.520;13.494;2023-02-01T17:57:10;4.00;1.00
9768;DHT22;4923;52.520;13.494;2023-02-01T17:59:56;4.00;1.00
9768;DHT22;4923;52.520;13.494;2023-02-01T18:02:44;4.00;1.00
9768;DHT22;4923;52.520;13.494;2023-02-01T18:05:37;4.10;1.00
9768;DHT22;4923;52.520;13.494;2023-02-01T18:08:27;4.10;1.00
9768;DHT22;4923;52.520;13.494;2023-02-01T18:11:16;4.10;1.00
9768;DHT22;4923;52.520;13.494;2023-02-01T18:14:05;4.20;1.00
9768;DHT22;4923;52.520;13.494;2023-02-01T18:16:52;4.30;1.00
9768;DHT22;4923;52.520;13.494;2023-02-01T18:19:39;4.30;1.00
9768;DHT22;4923;52.520;13.494;2023-02-01T18:22:26;4.40;1.00
9768;DHT22;4923;52.520;13.494;2023-02-01T18:25:18;4.30;1.00
9768;DHT22;4923;52.520;13.494;2023-02-01T18:28:06;4.30;1.00
9768;DHT22;4923;52.520;13.494;2023-02-01T18:30:54;4.30;1.00
9768;DHT22;4923;52.520;13.494;2023-02-01T18:33:41;4.40;1.00
9768;DHT22;4923;52.520;13.494;2023-02-01T18:36:28;4.40;1.00
9768;DHT22;4923;52.520;13.494;2023-02-01T18:39:16;4.40;1.00
9768;DHT22;4923;52.520;13.494;2023-02-01T18:42:03;4.40;1.00
9768;DHT22;4923;52.520;13.494;2023-02-01T18:44:50;4.40;1.00
9768;DHT22;4923;52.520;13.494;2023-02-01T18:47:38;4.50;1.00
9768;DHT22;4923;52.520;13.494;2023-02-01T18:50:26;4.50;1.00
9768;DHT22;4923;52.520;13.494;2023-02-01T18:53:15;4.50;1.00
9768;DHT22;4923;52.520;13.494;2023-02-01T18:56:05;4.60;1.00
9768;DHT22;4923;52.520;13.494;2023-02-01T18:58:52;4.60;1.00
9768;DHT22;4923;52.520;13.494;2023-02-01T19:01:39;4.60;1.00
9768;DHT22;4923;52.520;13.494;2023-02-01T19:04:27;4.60;1.00
9768;DHT22;4923;52.520;13.494;2023-02-01T19:07:14;4.60;1.00